Flight Track Log - Related Links

Times and Time Zones

All times are in EDT time to prevent confusion due to time zone crossing. See the AAL1144 flight status page for this flight to view local times or setup timezone preferences in your user account.

Time Position Orientation Groundspeed Altitude Reporting Facility
EDT Latitude Longitude Course Direction KTS MPH feet Rate Location/Type
Sun 08:02:37 PM 33.6520 -117.8850 208° Southwest 152 175 1,500  Level FlightAware ADS-B
Sun 08:02:52 PM 33.6400 -117.8890 196° South 180 207 1,800 1,500 Climbing FlightAware ADS-B
Sun 08:03:17 PM 33.6170 -117.8930 188° South 214 246 2,500 2,073 Climbing FlightAware ADS-B
Sun 08:03:47 PM 33.5880 -117.8970 187° South 239 275 3,700 2,509 Climbing FlightAware ADS-B
Sun 08:04:12 PM 33.5630 -117.8940 174° South 250 288 4,800 3,450 Climbing FlightAware ADS-B
Sun 08:04:27 PM 33.5450 -117.8770 142° Southeast 255 293 6,000 4,000 Climbing FlightAware ADS-B
Sun 08:04:42 PM 33.5390 -117.8550 108° East 266 306 6,800 3,067 Climbing FlightAware ADS-B
Sun 08:05:12 PM 33.5440 -117.8090 83° East 286 329 8,300 2,900 Climbing FlightAware ADS-B
Sun 08:05:42 PM 33.5510 -117.7590 80° East 305 351 9,700 2,143 Climbing FlightAware ADS-B
Sun 08:06:22 PM 33.5590 -117.6870 82° East 354 407 10,800 1,950 Climbing FlightAware ADS-B
Sun 08:07:02 PM 33.5690 -117.6070 81° East 381 438 12,300 2,625 Climbing FlightAware ADS-B
Sun 08:07:42 PM 33.5790 -117.5210 82° East 391 450 14,300 3,176 Climbing FlightAware ADS-B
Sun 08:08:27 PM 33.5860 -117.4240 85° East 389 448 16,800 2,965 Climbing FlightAware ADS-B
Sun 08:09:07 PM 33.5890 -117.3380 88° East 398 458 18,500 2,400 Climbing FlightAware ADS-B
Sun 08:09:52 PM 33.5930 -117.2350 87° East 412 474 20,200 2,259 Climbing FlightAware ADS-B
Sun 08:10:32 PM 33.5960 -117.1420 88° East 420 483 21,700 2,025 Climbing FlightAware ADS-B
Sun 08:11:12 PM 33.6000 -117.0480 87° East 427 491 22,900 918 Climbing FlightAware ADS-B
Sun 08:11:57 PM 33.6030 -116.9440 88° East 427 491 23,000 847 Climbing FlightAware ADS-B
Sun 08:12:37 PM 33.6070 -116.8490 87° East 429 494 24,100 1,765 Climbing FlightAware ADS-B
Sun 08:13:22 PM 33.6100 -116.7400 88° East 437 503 25,500 1,725 Climbing FlightAware ADS-B
Sun 08:13:57 PM 33.6130 -116.6620 87° East 443 510 26,400 675 Climbing FlightAware ADS-B
Sun 08:14:42 PM 33.6170 -116.5590 87° East 443 510 26,400  Level FlightAware ADS-B
Sun 08:15:22 PM 33.6210 -116.4760 87° East 443 510 26,400  Level FlightAware ADS-B
Sun 08:16:02 PM 33.6250 -116.3920 87° East 443 510 26,400  Level FlightAware ADS-B
Sun 08:16:52 PM 33.6290 -116.2880 87° East 443 510 26,400  Level FlightAware ADS-B
Sun 08:17:32 PM 33.6330 -116.2040 87° East 443 510 26,400 3,750 Level FlightAware ADS-B
Sun 08:18:12 PM 33.6770 -116.0050 75° East 488 562 31,400 3,750 Climbing FlightAware ADS-B
Sun 08:18:52 PM 33.7040 -115.9190 69° East 488 562 31,400  Level FlightAware ADS-B
Sun 08:19:32 PM 33.7320 -115.8330 69° East 488 562 31,400  Level FlightAware ADS-B
Sun 08:20:22 PM 33.7660 -115.7250 69° East 488 562 31,400  Level FlightAware ADS-B
Sun 08:21:02 PM 33.7940 -115.6390 69° East 488 562 31,400  Level FlightAware ADS-B
Sun 08:21:42 PM 33.8210 -115.5530 69° East 488 562 31,400  Level FlightAware ADS-B
Sun 08:22:32 PM 33.8560 -115.4450 69° East 488 562 31,400  Level FlightAware ADS-B
Sun 08:23:12 PM 33.8830 -115.3580 69° East 488 562 31,400  Level FlightAware ADS-B
Sun 08:23:52 PM 33.9110 -115.2720 69° East 488 562 31,400  Level FlightAware ADS-B
Sun 08:24:32 PM 33.9380 -115.1860 69° East 488 562 31,400  Level FlightAware ADS-B
Sun 08:25:12 PM 33.9660 -115.0990 69° East 488 562 31,400  Level FlightAware ADS-B
Sun 08:25:52 PM 33.9930 -115.0130 69° East 488 562 31,400  Level FlightAware ADS-B
Sun 08:26:42 PM 34.0270 -114.9050 69° East 488 562 31,400  Level FlightAware ADS-B
Sun 08:27:22 PM 34.0550 -114.8180 69° East 488 562 31,400 3,733 Level FlightAware ADS-B
Sun 08:28:12 PM 34.1360 -114.4790 74° East 500 575 37,000 3,360 Climbing FlightAware ADS-B
Sun 08:29:02 PM 34.1860 -114.3090 70° East 503 579 37,000  Level FlightAware ADS-B
Sun 08:29:42 PM 34.2170 -114.2010 71° East 501 577 37,000  Level FlightAware ADS-B
Sun 08:30:27 PM 34.2510 -114.0840 71° East 503 579 37,000  Level FlightAware ADS-B
Sun 08:31:07 PM 34.2820 -113.9790 70° East 504 580 37,000  Level FlightAware ADS-B
Sun 08:31:52 PM 34.3150 -113.8620 71° East 504 580 37,000  Level FlightAware ADS-B
Sun 08:32:32 PM 34.3470 -113.7510 71° East 503 579 37,000  Level FlightAware ADS-B
Sun 08:33:07 PM 34.3720 -113.6660 70° East 505 581 37,000  Level FlightAware ADS-B
Sun 08:33:57 PM 34.4110 -113.5260 71° East 507 583 37,000  Level FlightAware ADS-B
Sun 08:34:37 PM 34.4410 -113.4190 71° East 502 578 37,000  Level FlightAware ADS-B
Sun 08:35:17 PM 34.4710 -113.3150 71° East 500 575 37,000  Level FlightAware ADS-B
Sun 08:36:02 PM 34.5050 -113.1920 71° East 498 573 37,000  Level FlightAware ADS-B
Sun 08:36:42 PM 34.5350 -113.0860 71° East 496 571 37,000  Level FlightAware ADS-B
Sun 08:37:22 PM 34.5640 -112.9810 71° East 495 570 37,000  Level FlightAware ADS-B
Sun 08:38:07 PM 34.5960 -112.8640 72° East 493 567 37,000  Level FlightAware ADS-B
Sun 08:38:47 PM 34.6250 -112.7590 71° East 495 570 37,000  Level FlightAware ADS-B
Sun 08:39:32 PM 34.6580 -112.6440 71° East 495 570 37,000  Level FlightAware ADS-B
Sun 08:40:12 PM 34.6880 -112.5350 71° East 497 572 37,000  Level FlightAware ADS-B
Sun 08:40:57 PM 34.7240 -112.4150 70° East 499 574 37,000  Level FlightAware ADS-B
Sun 08:41:37 PM 34.7580 -112.3140 68° East 501 577 37,000  Level FlightAware ADS-B
Sun 08:42:17 PM 34.7940 -112.2070 68° East 503 579 37,000  Level FlightAware ADS-B
Sun 08:43:02 PM 34.8310 -112.0920 69° East 508 585 37,000  Level FlightAware ADS-B
Sun 08:43:42 PM 34.8670 -111.9850 68° East 509 586 37,000  Level FlightAware ADS-B
Sun 08:44:27 PM 34.9060 -111.8640 69° East 511 588 37,000  Level FlightAware ADS-B
Sun 08:45:07 PM 34.9420 -111.7570 68° East 509 586 37,000  Level FlightAware ADS-B
Sun 08:45:47 PM 34.9790 -111.6510 67° East 508 585 37,000  Level FlightAware ADS-B
Sun 08:46:32 PM 35.0280 -111.5420 61° Northeast 506 582 37,000  Level FlightAware ADS-B
Sun 08:47:12 PM 35.0730 -111.4390 62° Northeast 505 581 37,000  Level FlightAware ADS-B
Sun 08:47:52 PM 35.1160 -111.3390 62° Northeast 505 581 37,000  Level FlightAware ADS-B
Sun 08:48:37 PM 35.1660 -111.2240 62° Northeast 505 581 37,000  Level FlightAware ADS-B
Sun 08:49:17 PM 35.2100 -111.1220 62° Northeast 505 581 37,000  Level FlightAware ADS-B
Sun 08:50:02 PM 35.2570 -111.0140 62° Northeast 505 581 37,000  Level FlightAware ADS-B
Sun 08:50:42 PM 35.3010 -110.9120 62° Northeast 505 581 37,000  Level FlightAware ADS-B
Sun 08:51:22 PM 35.3450 -110.8090 62° Northeast 505 581 37,000  Level FlightAware ADS-B
Sun 08:51:52 PM 35.3770 -110.7350 62° Northeast 505 581 37,000  Level FlightAware ADS-B
Sun 08:52:37 PM 35.4270 -110.6190 62° Northeast 506 582 37,000  Level FlightAware ADS-B
Sun 08:53:17 PM 35.4700 -110.5170 63° Northeast 505 581 37,000  Level FlightAware ADS-B
Sun 08:53:57 PM 35.5130 -110.4160 62° Northeast 506 582 37,000  Level FlightAware ADS-B
Sun 08:54:37 PM 35.5560 -110.3140 63° Northeast 505 581 37,000  Level FlightAware ADS-B
Sun 08:55:22 PM 35.6050 -110.1990 62° Northeast 506 582 37,000  Level FlightAware ADS-B
Sun 08:56:02 PM 35.6460 -110.0990 63° Northeast 505 581 37,000  Level FlightAware ADS-B
Sun 08:56:57 PM 35.7030 -109.9660 62° Northeast 505 581 37,000  Level FlightAware ADS-B
Sun 08:57:42 PM 35.7510 -109.8520 63° Northeast 506 582 37,000  Level FlightAware ADS-B
Sun 08:58:37 PM 35.8130 -109.7000 63° Northeast 504 580 37,000  Level FlightAware ADS-B
Sun 08:59:17 PM 35.8550 -109.5980 63° Northeast 506 582 37,000  Level FlightAware ADS-B
Sun 08:59:57 PM 35.8980 -109.4960 62° Northeast 505 581 37,000  Level FlightAware ADS-B
Sun 09:00:42 PM 35.9390 -109.3950 63° Northeast 505 581 37,000  Level FlightAware ADS-B
Sun 09:01:22 PM 35.9750 -109.3080 63° Northeast 505 581 37,000  Level FlightAware ADS-B
Sun 09:02:02 PM 36.0110 -109.2200 63° Northeast 505 581 37,000  Level FlightAware ADS-B
Sun 09:02:42 PM 36.0470 -109.1330 63° Northeast 505 581 37,000  Level FlightAware ADS-B
Sun 09:03:32 PM 36.0920 -109.0230 63° Northeast 505 581 37,000  Level FlightAware ADS-B
Sun 09:04:12 PM 36.1280 -108.9360 63° Northeast 505 581 37,000  Level FlightAware ADS-B
Sun 09:04:52 PM 36.1640 -108.8480 63° Northeast 505 581 37,000  Level FlightAware ADS-B
Sun 09:05:32 PM 36.2000 -108.7600 63° Northeast 505 581 37,000  Level FlightAware ADS-B
Sun 09:06:17 PM 36.2960 -108.5150 64° Northeast 505 581 37,000  Level FlightAware ADS-B
Sun 09:06:57 PM 36.3340 -108.4210 63° Northeast 505 581 37,000  Level FlightAware ADS-B
Sun 09:07:37 PM 36.3700 -108.3330 63° Northeast 505 581 37,000  Level FlightAware ADS-B
Sun 09:08:17 PM 36.4180 -108.2080 64° Northeast 37,000  Level FlightAware ADS-B
Sun 09:13:32 PM 36.6670 -107.3510 70° East 496 571 37,000  Level FlightAware ADS-B
Sun 09:14:17 PM 36.6980 -107.2280 73° East 497 572 37,000  Level FlightAware ADS-B
Sun 09:14:57 PM 36.7260 -107.1170 72° East 496 571 37,000  Level FlightAware ADS-B
Sun 09:15:47 PM 36.7600 -106.9800 73° East 496 571 37,000  Level FlightAware ADS-B
Sun 09:16:37 PM 36.7940 -106.8450 73° East 496 571 37,000  Level FlightAware ADS-B
Sun 09:17:37 PM 36.8310 -106.6970 73° East 497 572 37,000  Level FlightAware ADS-B
Sun 09:18:27 PM 36.8610 -106.5810 72° East 497 572 37,000  Level FlightAware ADS-B
Sun 09:19:07 PM 36.8850 -106.4880 72° East 497 572 37,000  Level FlightAware ADS-B
Sun 09:19:47 PM 36.9100 -106.3950 71° East 497 572 37,000  Level FlightAware ADS-B
Sun 09:20:27 PM 36.9340 -106.3020 72° East 497 572 37,000  Level FlightAware ADS-B
Sun 09:21:17 PM 36.9640 -106.1850 72° East 497 572 37,000  Level FlightAware ADS-B
Sun 09:21:57 PM 36.9880 -106.0920 72° East 497 572 37,000  Level FlightAware ADS-B
Sun 09:22:37 PM 37.0120 -105.9990 72° East 497 572 37,000  Level FlightAware ADS-B
Sun 09:23:17 PM 37.0360 -105.9060 72° East 497 572 37,000  Level FlightAware ADS-B
Sun 09:23:57 PM 37.0600 -105.8130 72° East 497 572 37,000  Level FlightAware ADS-B
Sun 09:24:47 PM 37.0910 -105.6970 71° East 497 572 37,000  Level FlightAware ADS-B
Sun 09:25:27 PM 37.1150 -105.6030 72° East 497 572 37,000  Level FlightAware ADS-B
Sun 09:26:07 PM 37.1390 -105.5100 72° East 497 572 37,000  Level FlightAware ADS-B
Sun 09:26:47 PM 37.1630 -105.4170 72° East 497 572 37,000 1,538 Level FlightAware ADS-B
Sun 09:27:25 PM 37.2400 -105.0600 75° East 496 571 39,000 320 Climbing FlightAware ADS-B
Sun 09:33:02 PM 37.4674 -104.1350 73° East 495 570 39,000  Level FlightAware ADS-B
Sun 09:33:34 PM 37.4882 -104.0490 73° East 496 571 39,000  Level FlightAware ADS-B
Sun 09:34:05 PM 37.5094 -103.9630 73° East 497 572 39,000  Level FlightAware ADS-B
Sun 09:34:37 PM 37.5335 -103.8740 71° East 496 571 39,000  Level FlightAware ADS-B
Sun 09:35:15 PM 37.5621 -103.7700 71° East 497 572 39,000  Level FlightAware ADS-B
Sun 09:35:45 PM 37.5843 -103.6880 71° East 499 574 39,000  Level FlightAware ADS-B
Sun 09:36:16 PM 37.6066 -103.6050 71° East 500 575 39,000  Level FlightAware ADS-B
Sun 09:36:46 PM 37.6289 -103.5210 71° East 501 577 39,000  Level FlightAware ADS-B
Sun 09:37:17 PM 37.6513 -103.4360 72° East 502 578 39,000  Level FlightAware ADS-B
Sun 09:37:49 PM 37.6750 -103.3460 72° East 502 578 39,000  Level FlightAware ADS-B
Sun 09:38:21 PM 37.6979 -103.2580 72° East 504 580 39,000  Level FlightAware ADS-B
Sun 09:38:57 PM 37.7246 -103.1560 72° East 504 580 39,000  Level FlightAware ADS-B
Sun 09:39:27 PM 37.7465 -103.0720 72° East 504 580 39,000  Level FlightAware ADS-B
Sun 09:40:01 PM 37.7709 -102.9790 72° East 502 578 39,000  Level FlightAware ADS-B
Sun 09:40:31 PM 37.7926 -102.8950 72° East 502 578 39,000  Level FlightAware ADS-B
Sun 09:41:02 PM 37.8145 -102.8100 72° East 502 578 39,000  Level FlightAware ADS-B
Sun 09:41:35 PM 37.8383 -102.7180 72° East 502 578 39,000  Level FlightAware ADS-B
Sun 09:42:06 PM 37.8603 -102.6320 72° East 500 575 39,000  Level FlightAware ADS-B
Sun 09:42:37 PM 37.8823 -102.5460 72° East 500 575 39,000  Level FlightAware ADS-B
Sun 09:43:08 PM 37.9045 -102.4590 72° East 498 573 39,000  Level FlightAware ADS-B
Sun 09:43:39 PM 37.9260 -102.3750 72° East 497 572 39,000  Level FlightAware ADS-B
Sun 09:44:09 PM 37.9475 -102.2900 72° East 495 570 39,000  Level FlightAware ADS-B
Sun 09:44:41 PM 37.9693 -102.2040 72° East 494 568 39,000  Level FlightAware ADS-B
Sun 09:45:11 PM 37.9903 -102.1200 72° East 493 567 39,000  Level FlightAware ADS-B
Sun 09:45:42 PM 38.0115 -102.0360 72° East 491 565 39,000  Level FlightAware ADS-B
Sun 09:46:29 PM 38.0434 -101.9080 72° East 489 563 39,000  Level FlightAware ADS-B
Sun 09:46:59 PM 38.0638 -101.8260 72° East 486 559 39,000  Level FlightAware ADS-B
Sun 09:47:29 PM 38.0840 -101.7440 73° East 485 558 39,000  Level FlightAware ADS-B
Sun 09:48:03 PM 38.1065 -101.6530 73° East 485 558 39,000  Level FlightAware ADS-B
Sun 09:48:24 PM 38.1133 -101.6256 73° East 484 557 39,000  Level Kansas City Center
Sun 09:49:15 PM 38.1444 -101.4944 73° East 484 557 39,000  Level Denver Center
Sun 09:50:18 PM 38.1900 -101.3125 72° East 482 555 39,000  Level Denver Center
Sun 09:51:19 PM 38.2339 -101.1294 73° East 483 556 39,000  Level Denver Center
Sun 09:52:21 PM 38.2719 -100.9731 73° East 482 555 39,000  Level Denver Center
Sun 09:53:23 PM 38.3153 -100.7892 73° East 484 557 39,000  Level Denver Center
Sun 09:54:25 PM 38.3522 -100.6317 73° East 484 557 39,000  Level Denver Center
Sun 09:55:27 PM 38.3892 -100.4772 73° East 479 551 39,000  Level Denver Center
Sun 09:56:29 PM 38.4247 -100.3203 74° East 479 551 39,000  Level Denver Center
Sun 09:57:31 PM 38.4675 -100.1386 73° East 478 550 39,000  Level Denver Center
Sun 09:58:33 PM 38.5100 -99.9567 73° East 479 551 39,000  Level Denver Center
Sun 09:59:35 PM 38.5514 -99.8025 71° East 480 552 39,000  Level Denver Center
Sun 10:00:37 PM 38.5981 -99.6208 72° East 482 555 39,000  Level Denver Center
Sun 10:01:41 PM 38.6344 -99.4792 72° East 481 554 39,000  Level Kansas City Center
Sun 10:02:42 PM 38.6758 -99.3156 72° East 483 556 39,000  Level Kansas City Center
Sun 10:03:44 PM 38.7261 -99.1178 72° East 487 560 39,000  Level Kansas City Center
Sun 10:04:45 PM 38.7664 -98.9547 72° East 482 555 39,000  Level Kansas City Center
Sun 10:05:46 PM 38.8064 -98.7931 72° East 475 547 39,000  Level Kansas City Center
Sun 10:06:47 PM 38.8472 -98.6300 72° East 476 548 39,000  Level Kansas City Center
Sun 10:07:48 PM 38.8869 -98.4661 73° East 477 549 39,000  Level Kansas City Center
Sun 10:08:50 PM 38.9253 -98.3019 73° East 479 551 39,000  Level Kansas City Center
Sun 10:09:51 PM 38.9644 -98.1400 73° East 475 547 39,000  Level Kansas City Center
Sun 10:10:52 PM 39.0028 -97.9742 73° East 480 552 39,000  Level Kansas City Center
Sun 10:11:53 PM 39.0461 -97.7917 73° East 469 540 39,000  Level Kansas City Center
Sun 10:12:55 PM 39.0825 -97.6367 73° East 471 542 39,000  Level Kansas City Center
Sun 10:13:56 PM 39.1183 -97.4822 73° East 471 542 39,000  Level Kansas City Center
Sun 10:14:57 PM 39.1608 -97.3008 73° East 472 543 39,000  Level Kansas City Center
Sun 10:15:58 PM 39.1978 -97.1450 73° East 475 547 39,000  Level Kansas City Center
Sun 10:16:59 PM 39.2344 -96.9878 73° East 477 549 39,000  Level Kansas City Center
Sun 10:18:01 PM 39.2764 -96.8014 74° East 482 555 39,000 -293 Level Kansas City Center
Sun 10:19:02 PM 39.3114 -96.6419 74° East 482 555 38,400 -787 Descending Kansas City Center
Sun 10:20:03 PM 39.3508 -96.4694 73° East 480 552 37,400 -207 Descending Kansas City Center
Sun 10:25:47 PM 39.5310 -95.6280 73° East 475 547 37,000 -56 Descending FlightAware ADS-B
Sun 10:27:12 PM 39.6030 -95.2930 74° East 465 535 37,000  Level FlightAware ADS-B
Sun 10:27:47 PM 39.6200 -95.2080 75° East 466 536 37,000  Level FlightAware ADS-B
Sun 10:30:02 PM 39.6980 -94.8340 75° East 468 539 37,000  Level FlightAware ADS-B
Sun 10:30:42 PM 39.7200 -94.7250 75° East 469 540 37,000  Level FlightAware ADS-B
Sun 10:31:22 PM 39.7420 -94.6200 75° East 461 531 37,000  Level FlightAware ADS-B
Sun 10:32:07 PM 39.7660 -94.5000 75° East 460 529 37,000  Level FlightAware ADS-B
Sun 10:32:47 PM 39.7880 -94.3920 75° East 458 527 37,000  Level FlightAware ADS-B
Sun 10:33:27 PM 39.8090 -94.2870 75° East 458 527 37,000  Level FlightAware ADS-B
Sun 10:34:12 PM 39.8330 -94.1640 76° East 458 527 37,000  Level FlightAware ADS-B
Sun 10:34:52 PM 39.8550 -94.0590 75° East 456 525 37,000  Level FlightAware ADS-B
Sun 10:35:37 PM 39.8780 -93.9430 75° East 448 516 37,000  Level FlightAware ADS-B
Sun 10:36:17 PM 39.8980 -93.8390 76° East 447 514 37,000  Level FlightAware ADS-B
Sun 10:36:57 PM 39.9190 -93.7340 75° East 447 514 37,000  Level FlightAware ADS-B
Sun 10:37:42 PM 39.9420 -93.6140 76° East 447 514 37,000  Level FlightAware ADS-B
Sun 10:38:22 PM 39.9610 -93.5150 76° East 449 517 37,000  Level FlightAware ADS-B
Sun 10:39:02 PM 39.9820 -93.4070 76° East 447 514 37,000  Level FlightAware ADS-B
Sun 10:39:47 PM 40.0040 -93.2890 76° East 441 507 37,000  Level FlightAware ADS-B
Sun 10:40:27 PM 40.0310 -93.1920 70° East 442 509 37,000  Level FlightAware ADS-B
Sun 10:41:12 PM 40.0660 -93.0760 68° East 446 513 37,000  Level FlightAware ADS-B
Sun 10:41:52 PM 40.0950 -92.9780 69° East 448 516 37,000  Level FlightAware ADS-B
Sun 10:42:32 PM 40.1260 -92.8770 68° East 449 517 37,000  Level FlightAware ADS-B
Sun 10:43:17 PM 40.1590 -92.7650 69° East 449 517 37,000  Level FlightAware ADS-B
Sun 10:43:57 PM 40.1890 -92.6630 69° East 448 516 37,000  Level FlightAware ADS-B
Sun 10:44:42 PM 40.2230 -92.5480 69° East 447 514 37,000  Level FlightAware ADS-B
Sun 10:45:22 PM 40.2520 -92.4490 69° East 446 513 37,000  Level FlightAware ADS-B
Sun 10:45:57 PM 40.2770 -92.3660 68° East 446 513 37,000  Level FlightAware ADS-B
Sun 10:46:47 PM 40.3080 -92.2590 69° East 446 513 37,000  Level FlightAware ADS-B
Sun 10:47:27 PM 40.3330 -92.1730 69° East 446 513 37,000 -1,271 Level FlightAware ADS-B
Sun 10:48:12 PM 40.3780 -92.0190 69° East 448 516 35,200 -1,765 Descending FlightAware ADS-B
Sun 10:48:52 PM 40.4060 -91.9220 69° East 432 497 34,500 -1,125 Descending FlightAware ADS-B
Sun 10:49:32 PM 40.4340 -91.8230 70° East 430 495 33,700 -1,059 Descending FlightAware ADS-B
Sun 10:50:17 PM 40.4640 -91.7180 69° East 430 495 33,000 -675 Descending FlightAware ADS-B
Sun 10:50:52 PM 40.4880 -91.6360 69° East 432 497 32,800 -1,059 Descending FlightAware ADS-B
Sun 10:51:42 PM 40.5260 -91.5000 70° East 441 507 31,500 -1,200 Descending FlightAware ADS-B
Sun 10:52:22 PM 40.5540 -91.4010 70° East 441 507 31,000 -353 Descending FlightAware ADS-B
Sun 10:53:07 PM 40.5920 -91.2920 65° Northeast 439 505 31,000  Level FlightAware ADS-B
Sun 10:53:42 PM 40.6190 -91.2120 66° East 439 505 31,000  Level FlightAware ADS-B
Sun 10:54:22 PM 40.6540 -91.1130 65° Northeast 439 505 31,000  Level FlightAware ADS-B
Sun 10:55:12 PM 40.6960 -90.9870 66° East 442 509 31,000  Level FlightAware ADS-B
Sun 10:55:52 PM 40.7300 -90.8860 66° East 442 509 31,000  Level FlightAware ADS-B
Sun 10:56:32 PM 40.7620 -90.7920 66° East 443 510 31,000  Level FlightAware ADS-B
Sun 10:57:17 PM 40.7990 -90.6820 66° East 443 510 31,000  Level FlightAware ADS-B
Sun 10:57:57 PM 40.8340 -90.5790 66° East 442 509 31,000  Level FlightAware ADS-B
Sun 10:58:42 PM 40.8690 -90.4740 66° East 442 509 31,000  Level FlightAware ADS-B
Sun 10:59:22 PM 40.9030 -90.3720 66° East 441 507 31,000  Level FlightAware ADS-B
Sun 11:00:07 PM 40.9400 -90.2590 67° East 441 507 31,000  Level FlightAware ADS-B
Sun 11:00:47 PM 40.9730 -90.1600 66° East 441 507 31,000 -375 Level FlightAware ADS-B
Sun 11:01:27 PM 41.0040 -90.0650 67° East 439 505 30,500 -918 Descending FlightAware ADS-B
Sun 11:02:12 PM 41.0420 -89.9490 66° East 435 501 29,700 -1,341 Descending FlightAware ADS-B
Sun 11:02:52 PM 41.0730 -89.8550 66° East 427 491 28,600 -2,025 Descending FlightAware ADS-B
Sun 11:03:32 PM 41.1030 -89.7620 67° East 415 478 27,000 -2,400 Descending FlightAware ADS-B
Sun 11:04:17 PM 41.1380 -89.6550 66° East 401 461 25,200 -2,267 Descending FlightAware ADS-B
Sun 11:05:02 PM 41.1710 -89.5590 65° Northeast 388 447 23,600 -1,553 Descending FlightAware ADS-B
Sun 11:05:42 PM 41.2040 -89.4790 61° Northeast 391 450 23,000 -900 Descending FlightAware ADS-B
Sun 11:06:22 PM 41.2400 -89.3910 61° Northeast 392 451 22,400 -1,200 Descending FlightAware ADS-B
Sun 11:07:07 PM 41.2790 -89.2940 62° Northeast 388 447 21,300 -1,835 Descending FlightAware ADS-B
Sun 11:07:47 PM 41.3120 -89.2120 62° Northeast 380 437 19,800 -2,259 Descending FlightAware ADS-B
Sun 11:08:32 PM 41.3480 -89.1220 62° Northeast 369 425 18,100 -2,329 Descending FlightAware ADS-B
Sun 11:09:12 PM 41.3790 -89.0430 62° Northeast 363 418 16,500 -2,025 Descending FlightAware ADS-B
Sun 11:09:52 PM 41.4120 -88.9620 61° Northeast 342 394 15,400 -1,976 Descending FlightAware ADS-B
Sun 11:10:37 PM 41.4440 -88.8820 62° Northeast 335 386 13,700 -2,329 Descending FlightAware ADS-B
Sun 11:11:17 PM 41.4730 -88.8080 62° Northeast 337 388 12,100 -1,835 Descending FlightAware ADS-B
Sun 11:12:02 PM 41.5050 -88.7260 62° Northeast 316 364 11,100 -847 Descending FlightAware ADS-B
Sun 11:12:42 PM 41.5310 -88.6600 62° Northeast 306 352 10,900 -150 Descending FlightAware ADS-B
Sun 11:13:22 PM 41.5580 -88.5920 62° Northeast 303 349 10,900  Level FlightAware ADS-B
Sun 11:14:07 PM 41.5880 -88.5180 62° Northeast 306 352 10,900  Level FlightAware ADS-B
Sun 11:14:47 PM 41.6170 -88.4540 59° Northeast 296 341 10,900 -424 Level FlightAware ADS-B
Sun 11:15:32 PM 41.6520 -88.3940 52° Northeast 274 315 10,300 -1,114 Descending FlightAware ADS-B
Sun 11:15:57 PM 41.6740 -88.3620 47° Northeast 275 316 9,600 -1,650 Descending FlightAware ADS-B
Sun 11:16:12 PM 41.6920 -88.3540 18° North 282 325 9,200 -1,467 Descending FlightAware ADS-B
Sun 11:16:42 PM 41.7280 -88.3570 356° North 286 329 8,500 -1,200 Descending FlightAware ADS-B
Sun 11:17:07 PM 41.7640 -88.3610 355° North 276 318 8,100 -764 Descending FlightAware ADS-B
Sun 11:17:37 PM 41.7990 -88.3650 355° North 258 297 7,800 -655 Descending FlightAware ADS-B
Sun 11:18:02 PM 41.8280 -88.3690 354° North 242 278 7,500 -1,200 Descending FlightAware ADS-B
Sun 11:18:32 PM 41.8600 -88.3720 356° North 243 280 6,700 -1,500 Descending FlightAware ADS-B
Sun 11:19:02 PM 41.8940 -88.3770 354° North 241 277 6,000 -1,320 Descending FlightAware ADS-B
Sun 11:19:22 PM 41.9150 -88.3790 356° North 234 269 5,600 -1,350 Descending FlightAware ADS-B
Sun 11:19:42 PM 41.9330 -88.3690 22° Northeast 220 253 5,100 -1,886 Descending FlightAware ADS-B
Sun 11:19:57 PM 41.9430 -88.3480 57° Northeast 215 247 4,500 -1,600 Descending FlightAware ADS-B
Sun 11:20:27 PM 41.9560 -88.3100 65° Northeast 214 246 3,900 -655 Descending FlightAware ADS-B
Sun 11:20:52 PM 41.9660 -88.2790 67° East 213 245 3,900  Level FlightAware ADS-B
Sun 11:21:22 PM 41.9680 -88.2430 86° East 211 243 3,900  Level FlightAware ADS-B
Sun 11:21:47 PM 41.9680 -88.2090 90° East 206 237 3,900  Level FlightAware ADS-B
Sun 11:22:17 PM 41.9680 -88.1700 90° East 211 243 3,900 -327 Level FlightAware ADS-B
Sun 11:22:42 PM 41.9680 -88.1400 90° East 199 229 3,600 -900 Descending FlightAware ADS-B
Sun 11:22:57 PM 41.9680 -88.1210 90° East 191 220 3,300 -1,067 Descending FlightAware ADS-B
Sun 11:23:27 PM 41.9690 -88.0860 88° East 182 209 2,800 -1,000 Descending FlightAware ADS-B
Sun 11:23:57 PM 41.9690 -88.0530 90° East 179 206 2,300 -933 Descending FlightAware ADS-B
Sun 11:24:12 PM 41.9690 -88.0370 90° East 169 194 2,100 -800 Descending FlightAware ADS-B
Sun 11:24:42 PM 41.9690 -88.0110 90° East 144 166 1,700 -720 Descending FlightAware ADS-B
Sun 11:25:27 PM 41.9690 -87.9710 90° East 135 155 1,200 -706 Descending FlightAware ADS-B
Sun 11:26:07 PM 41.9690 -87.9360 90° East 146 168 700 -750 Descending FlightAware ADS-B

Login

Don't have an account? Register now (free) for customized features, flight alerts, and more!